sensor_id;sensor_type;location;lat;lon;timestamp;pressure;altitude;pressure_sealevel;temperature;humidity
60319;BME280;46163;52.306;5.634;2023-05-15T00:00:37;101431.19;;;19.86;60.29
60319;BME280;46163;52.306;5.634;2023-05-15T00:03:03;101423.34;;;19.84;60.19
60319;BME280;46163;52.306;5.634;2023-05-15T00:05:29;101418.75;;;19.85;60.46
60319;BME280;46163;52.306;5.634;2023-05-15T00:07:55;101411.72;;;19.84;60.26
60319;BME280;46163;52.306;5.634;2023-05-15T00:10:21;101413.63;;;19.83;60.15
60319;BME280;46163;52.306;5.634;2023-05-15T00:12:46;101424.66;;;19.82;60.09
60319;BME280;46163;52.306;5.634;2023-05-15T00:15:14;101426.78;;;19.80;60.13
60319;BME280;46163;52.306;5.634;2023-05-15T00:17:39;101417.28;;;19.77;60.26
60319;BME280;46163;52.306;5.634;2023-05-15T00:20:05;101422.13;;;19.75;60.02
60319;BME280;46163;52.306;5.634;2023-05-15T00:22:31;101411.59;;;19.73;60.18
60319;BME280;46163;52.306;5.634;2023-05-15T00:24:57;101408.38;;;19.76;60.18
60319;BME280;46163;52.306;5.634;2023-05-15T00:27:23;101417.53;;;19.75;60.01
60319;BME280;46163;52.306;5.634;2023-05-15T00:29:49;101423.19;;;19.74;60.03
60319;BME280;46163;52.306;5.634;2023-05-15T00:32:14;101411.50;;;19.68;60.24
60319;BME280;46163;52.306;5.634;2023-05-15T00:34:42;101414.28;;;19.73;60.18
60319;BME280;46163;52.306;5.634;2023-05-15T00:37:10;101414.50;;;19.72;60.16
60319;BME280;46163;52.306;5.634;2023-05-15T00:39:35;101415.81;;;19.69;60.18
60319;BME280;46163;52.306;5.634;2023-05-15T00:42:02;101410.44;;;19.69;60.06
60319;BME280;46163;52.306;5.634;2023-05-15T00:44:30;101406.66;;;19.70;60.11
60319;BME280;46163;52.306;5.634;2023-05-15T00:46:56;101406.91;;;19.69;60.12
60319;BME280;46163;52.306;5.634;2023-05-15T00:49:25;101394.38;;;19.63;60.27
60319;BME280;46163;52.306;5.634;2023-05-15T00:51:56;101400.59;;;19.63;60.07
60319;BME280;46163;52.306;5.634;2023-05-15T00:54:23;101403.09;;;19.65;60.21
60319;BME280;46163;52.306;5.634;2023-05-15T00:56:49;101401.19;;;19.65;59.96
60319;BME280;46163;52.306;5.634;2023-05-15T00:59:16;101397.09;;;19.63;60.10
60319;BME280;46163;52.306;5.634;2023-05-15T01:01:41;101403.25;;;19.58;60.00
60319;BME280;46163;52.306;5.634;2023-05-15T01:04:09;101394.59;;;19.56;60.23
60319;BME280;46163;52.306;5.634;2023-05-15T01:06:36;101397.34;;;19.61;60.11
60319;BME280;46163;52.306;5.634;2023-05-15T01:09:02;101386.78;;;19.60;60.09
60319;BME280;46163;52.306;5.634;2023-05-15T01:11:28;101396.78;;;19.59;60.11
60319;BME280;46163;52.306;5.634;2023-05-15T01:14:05;101399.47;;;19.59;60.18
60319;BME280;46163;52.306;5.634;2023-05-15T01:16:32;101394.81;;;19.55;60.06
60319;BME280;46163;52.306;5.634;2023-05-15T01:18:58;101390.94;;;19.51;59.99
60319;BME280;46163;52.306;5.634;2023-05-15T01:27:03;101397.97;;;19.52;60.11
60319;BME280;46163;52.306;5.634;2023-05-15T01:29:35;101392.00;;;19.49;60.10
60319;BME280;46163;52.306;5.634;2023-05-15T01:32:06;101390.13;;;19.50;60.11
60319;BME280;46163;52.306;5.634;2023-05-15T01:34:43;101392.25;;;19.48;60.14
60319;BME280;46163;52.306;5.634;2023-05-15T01:37:15;101388.75;;;19.47;59.99
60319;BME280;46163;52.306;5.634;2023-05-15T01:39:44;101374.66;;;19.45;60.06
60319;BME280;46163;52.306;5.634;2023-05-15T01:42:14;101385.44;;;19.45;60.10
60319;BME280;46163;52.306;5.634;2023-05-15T01:44:44;101383.00;;;19.44;60.05
60319;BME280;46163;52.306;5.634;2023-05-15T01:47:18;101388.41;;;19.44;59.90
60319;BME280;46163;52.306;5.634;2023-05-15T01:49:44;101378.69;;;19.43;60.05
60319;BME280;46163;52.306;5.634;2023-05-15T01:52:12;101377.03;;;19.42;59.92
60319;BME280;46163;52.306;5.634;2023-05-15T01:54:39;101363.78;;;19.40;59.96
60319;BME280;46163;52.306;5.634;2023-05-15T01:57:06;101371.91;;;19.40;60.08
60319;BME280;46163;52.306;5.634;2023-05-15T01:59:34;101365.94;;;19.38;60.09
60319;BME280;46163;52.306;5.634;2023-05-15T02:02:03;101355.59;;;19.35;60.16
60319;BME280;46163;52.306;5.634;2023-05-15T02:04:29;101361.81;;;19.36;59.99
60319;BME280;46163;52.306;5.634;2023-05-15T02:06:55;101357.75;;;19.33;60.12
60319;BME280;46163;52.306;5.634;2023-05-15T02:09:21;101366.41;;;19.35;59.93
60319;BME280;46163;52.306;5.634;2023-05-15T02:11:48;101358.56;;;19.34;59.93
60319;BME280;46163;52.306;5.634;2023-05-15T02:14:17;101357.75;;;19.33;59.95
60319;BME280;46163;52.306;5.634;2023-05-15T02:16:45;101367.97;;;19.31;60.12
60319;BME280;46163;52.306;5.634;2023-05-15T02:19:10;101361.19;;;19.29;60.00
60319;BME280;46163;52.306;5.634;2023-05-15T02:21:36;101362.00;;;19.29;59.99
60319;BME280;46163;52.306;5.634;2023-05-15T02:24:01;101366.59;;;19.29;60.05
60319;BME280;46163;52.306;5.634;2023-05-15T02:31:59;101365.13;;;19.21;60.01
60319;BME280;46163;52.306;5.634;2023-05-15T02:37:02;101380.00;;;19.24;60.03
60319;BME280;46163;52.306;5.634;2023-05-15T02:39:29;101381.06;;;19.23;60.15
60319;BME280;46163;52.306;5.634;2023-05-15T02:41:56;101375.66;;;19.23;60.04
60319;BME280;46163;52.306;5.634;2023-05-15T02:44:24;101365.13;;;19.21;60.48
60319;BME280;46163;52.306;5.634;2023-05-15T02:46:51;101368.03;;;19.19;60.06
60319;BME280;46163;52.306;5.634;2023-05-15T02:49:18;101372.88;;;19.17;60.12
60319;BME280;46163;52.306;5.634;2023-05-15T02:51:44;101369.34;;;19.17;59.95
60319;BME280;46163;52.306;5.634;2023-05-15T02:54:10;101363.13;;;19.16;60.07
60319;BME280;46163;52.306;5.634;2023-05-15T02:56:35;101361.75;;;19.14;60.06
60319;BME280;46163;52.306;5.634;2023-05-15T02:59:01;101367.97;;;19.14;60.02
60319;BME280;46163;52.306;5.634;2023-05-15T03:01:27;101356.50;;;19.07;59.96
60319;BME280;46163;52.306;5.634;2023-05-15T03:03:52;101366.59;;;19.12;60.15
60319;BME280;46163;52.306;5.634;2023-05-15T03:06:17;101359.47;;;19.06;59.97
60319;BME280;46163;52.306;5.634;2023-05-15T03:08:43;101374.91;;;19.10;59.86
60319;BME280;46163;52.306;5.634;2023-05-15T03:11:09;101369.50;;;19.10;59.92
60319;BME280;46163;52.306;5.634;2023-05-15T03:13:34;101360.84;;;19.08;60.01
60319;BME280;46163;52.306;5.634;2023-05-15T03:16:00;101354.63;;;19.08;60.01
60319;BME280;46163;52.306;5.634;2023-05-15T03:18:25;101356.25;;;19.09;60.07
60319;BME280;46163;52.306;5.634;2023-05-15T03:20:51;101360.03;;;19.08;59.99
60319;BME280;46163;52.306;5.634;2023-05-15T03:23:17;101362.97;;;19.06;60.13
60319;BME280;46163;52.306;5.634;2023-05-15T03:25:43;101352.69;;;19.03;60.07
60319;BME280;46163;52.306;5.634;2023-05-15T03:28:08;101357.81;;;19.05;60.04
60319;BME280;46163;52.306;5.634;2023-05-15T03:30:34;101363.22;;;19.05;60.02
60319;BME280;46163;52.306;5.634;2023-05-15T03:32:59;101358.91;;;19.04;60.05
60319;BME280;46163;52.306;5.634;2023-05-15T03:35:27;101358.91;;;19.04;60.07
60319;BME280;46163;52.306;5.634;2023-05-15T03:37:56;101360.78;;;19.03;60.15
60319;BME280;46163;52.306;5.634;2023-05-15T03:40:26;101351.03;;;19.02;59.90
60319;BME280;46163;52.306;5.634;2023-05-15T03:42:51;101347.28;;;19.03;59.98
60319;BME280;46163;52.306;5.634;2023-05-15T03:45:18;101347.75;;;19.00;59.92
60319;BME280;46163;52.306;5.634;2023-05-15T03:47:44;101341.53;;;19.00;59.94
60319;BME280;46163;52.306;5.634;2023-05-15T03:50:10;101339.34;;;18.97;60.09
60319;BME280;46163;52.306;5.634;2023-05-15T03:52:35;101328.22;;;18.93;60.11
60319;BME280;46163;52.306;5.634;2023-05-15T03:55:03;101345.31;;;18.99;59.89
60319;BME280;46163;52.306;5.634;2023-05-15T03:57:29;101348.81;;;18.99;60.12
60319;BME280;46163;52.306;5.634;2023-05-15T03:59:56;101337.22;;;18.99;59.99
60319;BME280;46163;52.306;5.634;2023-05-15T04:02:21;101342.59;;;18.99;60.02
60319;BME280;46163;52.306;5.634;2023-05-15T04:04:47;101343.69;;;18.98;60.01
60319;BME280;46163;52.306;5.634;2023-05-15T04:07:13;101346.63;;;18.96;60.35
60319;BME280;46163;52.306;5.634;2023-05-15T04:09:38;101348.25;;;18.97;59.95
60319;BME280;46163;52.306;5.634;2023-05-15T04:12:04;101346.63;;;18.96;59.94
60319;BME280;46163;52.306;5.634;2023-05-15T04:14:32;101348.50;;;18.96;60.04
60319;BME280;46163;52.306;5.634;2023-05-15T04:16:57;101338.44;;;18.91;60.06
60319;BME280;46163;52.306;5.634;2023-05-15T04:19:23;101346.63;;;18.96;60.10
60319;BME280;46163;52.306;5.634;2023-05-15T04:21:48;101348.16;;;18.92;59.84
60319;BME280;46163;52.306;5.634;2023-05-15T04:24:14;101352.03;;;18.96;59.92
60319;BME280;46163;52.306;5.634;2023-05-15T04:26:39;101351.19;;;18.96;59.89
60319;BME280;46163;52.306;5.634;2023-05-15T04:29:06;101343.81;;;18.91;60.09
60319;BME280;46163;52.306;5.634;2023-05-15T04:31:34;101352.25;;;18.95;59.88
60319;BME280;46163;52.306;5.634;2023-05-15T04:33:59;101350.38;;;18.95;59.96
60319;BME280;46163;52.306;5.634;2023-05-15T04:36:25;101351.44;;;18.94;59.81
60319;BME280;46163;52.306;5.634;2023-05-15T04:38:50;101358.47;;;18.95;59.92
60319;BME280;46163;52.306;5.634;2023-05-15T04:41:16;101358.47;;;18.95;60.02
60319;BME280;46163;52.306;5.634;2023-05-15T04:43:41;101363.06;;;18.95;59.82
60319;BME280;46163;52.306;5.634;2023-05-15T04:46:07;101353.78;;;18.90;59.81
60319;BME280;46163;52.306;5.634;2023-05-15T04:48:35;101360.00;;;18.91;59.92
60319;BME280;46163;52.306;5.634;2023-05-15T04:51:00;101363.53;;;18.91;59.95
60319;BME280;46163;52.306;5.634;2023-05-15T04:53:26;101363.78;;;18.90;59.67
60319;BME280;46163;52.306;5.634;2023-05-15T04:55:51;101381.13;;;18.94;59.69
60319;BME280;46163;52.306;5.634;2023-05-15T04:58:17;101374.56;;;18.90;59.88
60319;BME280;46163;52.306;5.634;2023-05-15T05:00:42;101380.28;;;18.93;60.07
60319;BME280;46163;52.306;5.634;2023-05-15T05:03:08;101380.28;;;18.93;59.93
60319;BME280;46163;52.306;5.634;2023-05-15T05:05:33;101376.75;;;18.93;59.81
60319;BME280;46163;52.306;5.634;2023-05-15T05:07:59;101382.97;;;18.93;59.84
60319;BME280;46163;52.306;5.634;2023-05-15T05:10:25;101374.88;;;18.93;59.76
60319;BME280;46163;52.306;5.634;2023-05-15T05:12:50;101381.13;;;18.94;59.81
60319;BME280;46163;52.306;5.634;2023-05-15T05:15:15;101369.16;;;18.90;59.77
60319;BME280;46163;52.306;5.634;2023-05-15T05:17:41;101374.06;;;18.93;59.74
60319;BME280;46163;52.306;5.634;2023-05-15T05:20:07;101385.91;;;18.92;59.79
60319;BME280;46163;52.306;5.634;2023-05-15T05:22:35;101371.84;;;18.90;59.67
60319;BME280;46163;52.306;5.634;2023-05-15T05:25:00;101382.16;;;18.93;59.76
60319;BME280;46163;52.306;5.634;2023-05-15T05:27:26;101374.06;;;18.93;59.59
60319;BME280;46163;52.306;5.634;2023-05-15T05:29:52;101367.84;;;18.92;59.74
60319;BME280;46163;52.306;5.634;2023-05-15T05:32:18;101370.22;;;18.89;59.79
60319;BME280;46163;52.306;5.634;2023-05-15T05:34:46;101381.94;;;18.95;59.63
60319;BME280;46163;52.306;5.634;2023-05-15T05:37:11;101370.53;;;18.92;59.74
60319;BME280;46163;52.306;5.634;2023-05-15T05:39:37;101376.53;;;18.95;59.51
60319;BME280;46163;52.306;5.634;2023-05-15T05:42:03;101368.44;;;18.95;59.51
60319;BME280;46163;52.306;5.634;2023-05-15T05:44:31;101371.97;;;18.95;59.52
60319;BME280;46163;52.306;5.634;2023-05-15T05:46:56;101360.00;;;18.91;59.65
60319;BME280;46163;52.306;5.634;2023-05-15T05:49:22;101361.16;;;18.95;59.72
60319;BME280;46163;52.306;5.634;2023-05-15T05:51:47;101369.25;;;18.95;59.52
60319;BME280;46163;52.306;5.634;2023-05-15T05:54:12;101362.13;;;18.89;59.36
60319;BME280;46163;52.306;5.634;2023-05-15T05:56:42;101369.25;;;18.95;59.48
60319;BME280;46163;52.306;5.634;2023-05-15T05:59:08;101375.72;;;18.94;59.38
60319;BME280;46163;52.306;5.634;2023-05-15T06:01:33;101375.13;;;18.92;59.76
60319;BME280;46163;52.306;5.634;2023-05-15T06:04:01;101373.59;;;18.96;59.50
60319;BME280;46163;52.306;5.634;2023-05-15T06:06:27;101374.41;;;18.97;59.31
60319;BME280;46163;52.306;5.634;2023-05-15T06:08:53;101373.59;;;18.96;59.29
60319;BME280;46163;52.306;5.634;2023-05-15T06:11:18;101383.31;;;18.97;59.09
60319;BME280;46163;52.306;5.634;2023-05-15T06:13:44;101372.94;;;18.89;58.99
60319;BME280;46163;52.306;5.634;2023-05-15T06:16:09;101383.88;;;18.99;59.05
60319;BME280;46163;52.306;5.634;2023-05-15T06:18:35;101378.00;;;19.02;58.98
60319;BME280;46163;52.306;5.634;2023-05-15T06:21:00;101363.94;;;19.00;58.66
60319;BME280;46163;52.306;5.634;2023-05-15T06:23:28;101375.91;;;19.04;58.75
60319;BME280;46163;52.306;5.634;2023-05-15T06:25:53;101368.38;;;19.06;58.70
60319;BME280;46163;52.306;5.634;2023-05-15T06:28:19;101372.69;;;19.07;58.64
60319;BME280;46163;52.306;5.634;2023-05-15T06:30:44;101371.63;;;19.08;58.66
60319;BME280;46163;52.306;5.634;2023-05-15T06:33:10;101369.75;;;19.09;58.70
60319;BME280;46163;52.306;5.634;2023-05-15T06:35:35;101367.06;;;19.09;58.74
60319;BME280;46163;52.306;5.634;2023-05-15T06:38:01;101359.22;;;19.07;58.66
60319;BME280;46163;52.306;5.634;2023-05-15T06:40:26;101365.09;;;19.04;58.75
60319;BME280;46163;52.306;5.634;2023-05-15T06:42:52;101375.97;;;19.09;58.82
60319;BME280;46163;52.306;5.634;2023-05-15T06:45:17;101379.72;;;19.08;58.76
60319;BME280;46163;52.306;5.634;2023-05-15T06:47:43;101375.97;;;19.09;58.71
60319;BME280;46163;52.306;5.634;2023-05-15T06:50:08;101366.00;;;19.10;58.72
60319;BME280;46163;52.306;5.634;2023-05-15T06:52:34;101369.03;;;19.13;58.72
60319;BME280;46163;52.306;5.634;2023-05-15T06:55:00;101373.38;;;19.14;58.92
60319;BME280;46163;52.306;5.634;2023-05-15T06:57:25;101372.03;;;19.17;58.73
60319;BME280;46163;52.306;5.634;2023-05-15T06:59:51;101372.03;;;19.17;58.54
60319;BME280;46163;52.306;5.634;2023-05-15T07:02:18;101381.31;;;19.21;58.55
60319;BME280;46163;52.306;5.634;2023-05-15T07:04:44;101375.41;;;19.24;58.44
60319;BME280;46163;52.306;5.634;2023-05-15T07:07:09;101372.47;;;19.26;58.61
60319;BME280;46163;52.306;5.634;2023-05-15T07:09:35;101359.94;;;19.19;58.57
60319;BME280;46163;52.306;5.634;2023-05-15T07:12:00;101372.22;;;19.27;58.47
60319;BME280;46163;52.306;5.634;2023-05-15T07:14:28;101379.91;;;19.35;58.78
60319;BME280;46163;52.306;5.634;2023-05-15T07:16:53;101366.41;;;19.35;59.18
60319;BME280;46163;52.306;5.634;2023-05-15T07:19:19;101368.84;;;19.37;59.22
60319;BME280;46163;52.306;5.634;2023-05-15T07:21:47;101371.91;;;19.40;59.48
60319;BME280;46163;52.306;5.634;2023-05-15T07:24:13;101371.06;;;19.40;59.43
60319;BME280;46163;52.306;5.634;2023-05-15T07:26:38;101359.63;;;19.33;59.54
60319;BME280;46163;52.306;5.634;2023-05-15T07:29:04;101360.84;;;19.42;59.20
60319;BME280;46163;52.306;5.634;2023-05-15T07:31:30;101367.88;;;19.43;59.55
60319;BME280;46163;52.306;5.634;2023-05-15T07:33:57;101374.91;;;19.44;59.55
60319;BME280;46163;52.306;5.634;2023-05-15T07:36:23;101364.38;;;19.42;59.70
60319;BME280;46163;52.306;5.634;2023-05-15T07:38:51;101369.84;;;19.47;59.96
60319;BME280;46163;52.306;5.634;2023-05-15T07:41:16;101363.03;;;19.45;59.83
60319;BME280;46163;52.306;5.634;2023-05-15T07:43:42;101372.56;;;19.47;59.82
60319;BME280;46163;52.306;5.634;2023-05-15T07:46:07;101370.41;;;19.49;59.66
60319;BME280;46163;52.306;5.634;2023-05-15T07:48:32;101366.41;;;19.52;59.38
60319;BME280;46163;52.306;5.634;2023-05-15T07:51:03;101372.13;;;19.56;59.68
60319;BME280;46163;52.306;5.634;2023-05-15T07:53:28;101366.75;;;19.56;59.49
60319;BME280;46163;52.306;5.634;2023-05-15T07:55:54;101366.50;;;19.57;59.74
60319;BME280;46163;52.306;5.634;2023-05-15T07:58:19;101367.06;;;19.59;59.44
60319;BME280;46163;52.306;5.634;2023-05-15T08:00:45;101367.38;;;19.63;59.06
60319;BME280;46163;52.306;5.634;2023-05-15T08:03:10;101367.16;;;19.64;59.15
60319;BME280;46163;52.306;5.634;2023-05-15T08:05:36;101368.53;;;19.67;59.11
60319;BME280;46163;52.306;5.634;2023-05-15T08:08:01;101374.25;;;19.70;59.07
60319;BME280;46163;52.306;5.634;2023-05-15T08:10:26;101361.81;;;19.69;59.03
60319;BME280;46163;52.306;5.634;2023-05-15T08:12:52;101368.84;;;19.70;59.20
60319;BME280;46163;52.306;5.634;2023-05-15T08:15:20;101368.84;;;19.70;59.43
60319;BME280;46163;52.306;5.634;2023-05-15T08:17:45;101366.66;;;19.67;59.58
60319;BME280;46163;52.306;5.634;2023-05-15T08:20:11;101376.69;;;19.72;59.70
60319;BME280;46163;52.306;5.634;2023-05-15T08:22:39;101361.50;;;19.66;59.67
60319;BME280;46163;52.306;5.634;2023-05-15T08:25:05;101366.75;;;19.72;59.72
60319;BME280;46163;52.306;5.634;2023-05-15T08:27:33;101377.59;;;19.77;59.41
60319;BME280;46163;52.306;5.634;2023-05-15T08:29:59;101372.16;;;19.72;58.95
60319;BME280;46163;52.306;5.634;2023-05-15T08:32:24;101380.25;;;19.72;59.17
60319;BME280;46163;52.306;5.634;2023-05-15T08:34:50;101371.06;;;19.73;59.06
60319;BME280;46163;52.306;5.634;2023-05-15T08:37:16;101377.94;;;19.81;58.94
60319;BME280;46163;52.306;5.634;2023-05-15T08:39:41;101366.38;;;19.86;58.54
60319;BME280;46163;52.306;5.634;2023-05-15T08:42:13;101369.84;;;19.81;58.54
60319;BME280;46163;52.306;5.634;2023-05-15T08:44:40;101374.22;;;19.87;58.56
60319;BME280;46163;52.306;5.634;2023-05-15T08:47:05;101351.97;;;19.80;58.34
60319;BME280;46163;52.306;5.634;2023-05-15T08:49:38;101372.97;;;19.95;58.28
60319;BME280;46163;52.306;5.634;2023-05-15T08:52:06;101368.94;;;19.97;58.27
60319;BME280;46163;52.306;5.634;2023-05-15T08:54:33;101369.28;;;20.01;58.21
60319;BME280;46163;52.306;5.634;2023-05-15T08:56:59;101369.28;;;20.01;58.57
60319;BME280;46163;52.306;5.634;2023-05-15T08:59:25;101366.84;;;19.99;58.82
60319;BME280;46163;52.306;5.634;2023-05-15T09:01:51;101372.25;;;19.99;59.04
60319;BME280;46163;52.306;5.634;2023-05-15T09:04:17;101346.78;;;19.95;58.92
60319;BME280;46163;52.306;5.634;2023-05-15T09:06:43;101358.22;;;20.02;58.93
60319;BME280;46163;52.306;5.634;2023-05-15T09:09:14;101366.03;;;19.99;58.93
60319;BME280;46163;52.306;5.634;2023-05-15T09:11:44;101368.78;;;20.04;58.98
60319;BME280;46163;52.306;5.634;2023-05-15T09:14:10;101360.09;;;20.02;58.85
60319;BME280;46163;52.306;5.634;2023-05-15T09:16:36;101362.88;;;20.07;59.02
60319;BME280;46163;52.306;5.634;2023-05-15T09:19:02;101370.03;;;20.18;58.66
60319;BME280;46163;52.306;5.634;2023-05-15T09:21:29;101348.88;;;20.10;58.52
60319;BME280;46163;52.306;5.634;2023-05-15T09:24:15;101369.53;;;20.21;58.39
60319;BME280;46163;52.306;5.634;2023-05-15T09:26:43;101373.38;;;20.25;58.29
60319;BME280;46163;52.306;5.634;2023-05-15T09:29:10;101377.19;;;20.29;57.98
60319;BME280;46163;52.306;5.634;2023-05-15T09:31:36;101368.53;;;20.27;58.07
60319;BME280;46163;52.306;5.634;2023-05-15T09:34:02;101368.28;;;20.29;57.99
60319;BME280;46163;52.306;5.634;2023-05-15T09:36:29;101374.25;;;20.31;57.54
60319;BME280;46163;52.306;5.634;2023-05-15T09:38:59;101363.13;;;20.27;57.50
60319;BME280;46163;52.306;5.634;2023-05-15T09:41:26;101372.06;;;20.28;57.33
60319;BME280;46163;52.306;5.634;2023-05-15T09:43:56;101371.53;;;20.31;57.05
60319;BME280;46163;52.306;5.634;2023-05-15T09:46:22;101374.25;;;20.31;56.81
60319;BME280;46163;52.306;5.634;2023-05-15T09:48:48;101369.97;;;20.35;56.82
60319;BME280;46163;52.306;5.634;2023-05-15T09:51:18;101357.47;;;20.29;56.95
60319;BME280;46163;52.306;5.634;2023-05-15T09:53:49;101355.06;;;20.32;56.78
60319;BME280;46163;52.306;5.634;2023-05-15T09:56:16;101366.50;;;20.40;56.79
60319;BME280;46163;52.306;5.634;2023-05-15T09:58:52;101364.38;;;20.42;56.78
60319;BME280;46163;52.306;5.634;2023-05-15T10:01:19;101361.47;;;20.43;56.56
60319;BME280;46163;52.306;5.634;2023-05-15T10:04:08;101369.13;;;20.51;56.41
60319;BME280;46163;52.306;5.634;2023-05-15T10:06:46;101382.63;;;20.51;56.52
60319;BME280;46163;52.306;5.634;2023-05-15T10:09:13;101370.19;;;20.50;56.29
60319;BME280;46163;52.306;5.634;2023-05-15T10:11:46;101370.19;;;20.50;56.62
60319;BME280;46163;52.306;5.634;2023-05-15T10:14:15;101368.34;;;20.56;56.37
60319;BME280;46163;52.306;5.634;2023-05-15T10:16:42;101359.66;;;20.54;56.02
60319;BME280;46163;52.306;5.634;2023-05-15T10:19:10;101371.66;;;20.63;56.11
60319;BME280;46163;52.306;5.634;2023-05-15T10:21:38;101375.44;;;20.62;56.23
60319;BME280;46163;52.306;5.634;2023-05-15T10:24:04;101380.03;;;20.62;56.18
60319;BME280;46163;52.306;5.634;2023-05-15T10:26:41;101372.69;;;20.57;56.34
60319;BME280;46163;52.306;5.634;2023-05-15T10:29:12;101385.38;;;20.56;56.05
60319;BME280;46163;52.306;5.634;2023-05-15T10:31:38;101388.41;;;20.60;55.97
60319;BME280;46163;52.306;5.634;2023-05-15T10:34:05;101388.41;;;20.60;56.01
60319;BME280;46163;52.306;5.634;2023-05-15T10:36:33;101386.78;;;20.59;56.31
60319;BME280;46163;52.306;5.634;2023-05-15T10:38:59;101375.91;;;20.54;55.98
60319;BME280;46163;52.306;5.634;2023-05-15T10:41:27;101375.38;;;20.57;55.90
60319;BME280;46163;52.306;5.634;2023-05-15T10:43:54;101376.44;;;20.56;56.35
60319;BME280;46163;52.306;5.634;2023-05-15T10:46:22;101383.50;;;20.57;55.93
60319;BME280;46163;52.306;5.634;2023-05-15T10:48:49;101377.22;;;20.51;55.95
60319;BME280;46163;52.306;5.634;2023-05-15T10:51:27;101381.38;;;20.59;56.02
60319;BME280;46163;52.306;5.634;2023-05-15T10:53:53;101377.81;;;20.58;56.22
60319;BME280;46163;52.306;5.634;2023-05-15T10:56:19;101375.97;;;20.59;56.18
60319;BME280;46163;52.306;5.634;2023-05-15T10:58:49;101375.97;;;20.59;55.90
60319;BME280;46163;52.306;5.634;2023-05-15T11:01:28;101364.81;;;20.55;56.22
60319;BME280;46163;52.306;5.634;2023-05-15T11:04:13;101364.53;;;20.52;55.60
60319;BME280;46163;52.306;5.634;2023-05-15T11:06:41;101362.94;;;20.56;54.09
60319;BME280;46163;52.306;5.634;2023-05-15T11:11:57;101367.50;;;20.50;54.22
60319;BME280;46163;52.306;5.634;2023-05-15T11:14:26;101359.88;;;20.47;54.16
60319;BME280;46163;52.306;5.634;2023-05-15T11:19:21;101366.34;;;20.46;53.82
60319;BME280;46163;52.306;5.634;2023-05-15T11:21:58;101368.50;;;20.44;55.15
60319;BME280;46163;52.306;5.634;2023-05-15T11:24:28;101366.34;;;20.46;55.46
60319;BME280;46163;52.306;5.634;2023-05-15T11:27:02;101372.16;;;20.38;55.70
60319;BME280;46163;52.306;5.634;2023-05-15T11:29:28;101362.50;;;20.42;55.91
60319;BME280;46163;52.306;5.634;2023-05-15T11:31:53;101362.97;;;20.39;55.63
60319;BME280;46163;52.306;5.634;2023-05-15T11:36:55;101368.13;;;20.41;55.94
60319;BME280;46163;52.306;5.634;2023-05-15T11:39:24;101372.69;;;20.35;55.93
60319;BME280;46163;52.306;5.634;2023-05-15T11:41:50;101367.28;;;20.35;55.88
60319;BME280;46163;52.306;5.634;2023-05-15T11:44:23;101379.19;;;20.39;56.11
60319;BME280;46163;52.306;5.634;2023-05-15T11:46:49;101372.94;;;20.33;56.10
60319;BME280;46163;52.306;5.634;2023-05-15T11:49:18;101378.66;;;20.37;56.23
60319;BME280;46163;52.306;5.634;2023-05-15T11:51:44;101376.19;;;20.36;56.39
60319;BME280;46163;52.306;5.634;2023-05-15T11:54:12;101374.56;;;20.35;56.25
60319;BME280;46163;52.306;5.634;2023-05-15T11:56:42;101369.16;;;20.35;56.19
60319;BME280;46163;52.306;5.634;2023-05-15T11:59:12;101363.94;;;20.28;56.15
60319;BME280;46163;52.306;5.634;2023-05-15T12:01:43;101375.88;;;20.32;56.04
60319;BME280;46163;52.306;5.634;2023-05-15T12:04:15;101378.84;;;20.30;56.47
60319;BME280;46163;52.306;5.634;2023-05-15T12:06:40;101370.97;;;20.29;56.17
60319;BME280;46163;52.306;5.634;2023-05-15T12:09:12;101383.16;;;20.31;56.37
60319;BME280;46163;52.306;5.634;2023-05-15T12:11:39;101361.97;;;20.23;56.19
60319;BME280;46163;52.306;5.634;2023-05-15T12:14:04;101364.47;;;20.25;56.13
60319;BME280;46163;52.306;5.634;2023-05-15T12:16:30;101367.16;;;20.25;56.31
60319;BME280;46163;52.306;5.634;2023-05-15T12:18:57;101356.78;;;20.17;56.49
60319;BME280;46163;52.306;5.634;2023-05-15T12:21:25;101376.09;;;20.25;56.39
60319;BME280;46163;52.306;5.634;2023-05-15T12:23:51;101374.69;;;20.23;56.35
60319;BME280;46163;52.306;5.634;2023-05-15T12:26:20;101379.84;;;20.24;56.31
60319;BME280;46163;52.306;5.634;2023-05-15T12:28:47;101365.44;;;20.19;56.45
60319;BME280;46163;52.306;5.634;2023-05-15T12:31:14;101382.78;;;20.23;56.69
60319;BME280;46163;52.306;5.634;2023-05-15T12:33:42;101371.13;;;20.17;56.49
60319;BME280;46163;52.306;5.634;2023-05-15T12:36:08;101376.00;;;20.20;56.50
60319;BME280;46163;52.306;5.634;2023-05-15T12:38:35;101363.28;;;20.16;56.56
60319;BME280;46163;52.306;5.634;2023-05-15T12:41:01;101377.09;;;20.19;56.67
60319;BME280;46163;52.306;5.634;2023-05-15T12:43:26;101374.38;;;20.19;56.71
60319;BME280;46163;52.306;5.634;2023-05-15T12:45:56;101368.16;;;20.19;56.40
60319;BME280;46163;52.306;5.634;2023-05-15T12:48:21;101361.59;;;20.15;56.58
60319;BME280;46163;52.306;5.634;2023-05-15T12:50:48;101364.09;;;20.16;56.75
60319;BME280;46163;52.306;5.634;2023-05-15T12:53:14;101368.97;;;20.19;56.52
60319;BME280;46163;52.306;5.634;2023-05-15T12:55:45;101362.41;;;20.15;56.39
60319;BME280;46163;52.306;5.634;2023-05-15T12:58:12;101371.38;;;20.16;56.47
60319;BME280;46163;52.306;5.634;2023-05-15T13:00:40;101366.28;;;20.19;56.73
60319;BME280;46163;52.306;5.634;2023-05-15T13:03:07;101360.88;;;20.19;56.67
60319;BME280;46163;52.306;5.634;2023-05-15T13:05:34;101361.41;;;20.21;56.67
60319;BME280;46163;52.306;5.634;2023-05-15T13:08:01;101355.75;;;20.23;56.48
60319;BME280;46163;52.306;5.634;2023-05-15T13:10:27;101353.88;;;20.23;56.60